Schedule Details

Flight Number: CPX332
Departure: Austin-Bergstrom International Airport (KAUS) at N/A
Arrival: Valley International Airport (KHRL) at N/A
Route: PCKIT CRP


Current Weather Information
KAUS 152153Z 20011KT 10SM SCT120 BKN200 BKN250 29/13 A2967 RMK AO2 SLP039 T02890133 $
KHRL 152152Z 17012KT 10SM CLR 31/17 A2968 RMK AO2 SLP051 T03060172

Route Map